15°C Temp
7°C Dewpoint
59% Humidity
Temperature
8 KM/H
5 MPH
4 KTS
100°
Due East

Wind Speed
Nubes Dispersas
Pressure 1021.92 (hPa) - 30.18 (in)
Visibility 6.2 (mi) - 10.0 (km)

Current Conditions
LEVC
Location Valencia 70(km)
Metar :LEVC 181300Z 10004KT 050V140 9999 SCT030 15/07 Q1022 NOSIG
Thu 1st January 02:00 am

Airport
  Metar Aviation API Data Provided by https://www.checkwx.com/ PHP scripts by weather34.com ©2019